Time;durP1;ratioP1;P1;durP2;ratioP2;P2;SDS_P1;SDS_P2;PMS_P1;PMS_P2;Temp;Humidity;BMP_temperature;BMP_pressure;BME280_temperature;BME280_humidity;BME280_pressure;Samples;Min_cycle;Max_cycle;Signal;HPM_P1;HPM_P2
2023/09/16 00:00:56;;;;;;;14.43;11.95;;;16.00;88.40;;;;;;4992249;28;20529;-62
2023/09/16 00:03:21;;;;;;;14.27;11.23;;;16.00;88.50;;;;;;4992454;28;20196;-61
2023/09/16 00:05:47;;;;;;;12.82;10.88;;;16.00;88.30;;;;;;4992941;28;20046;-62
2023/09/16 00:08:13;;;;;;;12.07;10.77;;;16.00;88.30;;;;;;4991700;28;20545;-63
2023/09/16 00:10:40;;;;;;;12.88;10.52;;;15.90;88.30;;;;;;4992397;28;20037;-63
2023/09/16 00:13:06;;;;;;;12.90;10.63;;;15.90;89.20;;;;;;4991876;28;20030;-60
2023/09/16 00:15:31;;;;;;;13.65;11.40;;;15.90;88.20;;;;;;4993205;28;20041;-62
2023/09/16 00:17:57;;;;;;;15.52;11.68;;;15.90;88.10;;;;;;4992952;28;20034;-61
2023/09/16 00:20:25;;;;;;;14.15;11.65;;;15.90;88.30;;;;;;4993902;28;20042;-62
2023/09/16 00:22:51;;;;;;;15.13;12.70;;;15.80;88.20;;;;;;4994244;28;20035;-63
2023/09/16 00:25:17;;;;;;;15.30;11.75;;;15.80;88.40;;;;;;4992004;28;20506;-62
2023/09/16 00:27:43;;;;;;;14.10;11.40;;;15.70;88.50;;;;;;4995404;28;20034;-61
2023/09/16 00:30:09;;;;;;;14.25;11.85;;;15.70;88.70;;;;;;4991362;28;20506;-63
2023/09/16 00:32:35;;;;;;;14.38;11.27;;;15.50;88.70;;;;;;4994582;28;20038;-61
2023/09/16 00:35:04;;;;;;;13.75;11.38;;;15.60;88.90;;;;;;4991662;28;20052;-62
2023/09/16 00:37:30;;;;;;;14.15;11.85;;;15.60;89.00;;;;;;4996464;28;20038;-63
2023/09/16 00:39:56;;;;;;;14.90;11.48;;;15.60;89.10;;;;;;4995409;28;20596;-61
2023/09/16 00:42:21;;;;;;;14.30;11.45;;;15.60;89.10;;;;;;4996073;28;20129;-61
2023/09/16 00:44:47;;;;;;;14.20;11.45;;;15.60;89.10;;;;;;4994658;28;20041;-62
2023/09/16 00:47:13;;;;;;;15.15;11.45;;;15.60;89.00;;;;;;4996023;28;20406;-63
2023/09/16 00:49:40;;;;;;;13.93;11.45;;;15.60;89.00;;;;;;4997550;28;20065;-62
2023/09/16 00:52:07;;;;;;;16.13;12.25;;;15.60;89.00;;;;;;4996343;28;20132;-62
2023/09/16 00:54:33;;;;;;;13.43;11.30;;;15.70;88.90;;;;;;4995656;28;20061;-62
2023/09/16 00:57:01;;;;;;;14.60;11.02;;;15.60;88.60;;;;;;4996499;28;20042;-62
2023/09/16 00:59:28;;;;;;;14.35;10.93;;;15.60;88.50;;;;;;5010133;28;20045;-63
2023/09/16 01:01:55;;;;;;;14.70;11.38;;;15.60;88.60;;;;;;4998987;28;20053;-62
2023/09/16 01:04:24;;;;;;;16.50;11.23;;;15.60;88.60;;;;;;4995756;28;20038;-62
2023/09/16 01:06:51;;;;;;;13.63;10.73;;;15.60;88.50;;;;;;4998743;28;20046;-62
2023/09/16 01:09:17;;;;;;;13.75;11.40;;;15.70;88.60;;;;;;4994966;28;20146;-63
2023/09/16 01:11:46;;;;;;;14.63;11.35;;;15.70;88.60;;;;;;4994030;28;20061;-63
2023/09/16 01:14:12;;;;;;;15.43;11.18;;;15.70;88.70;;;;;;4995148;28;20424;-63
2023/09/16 01:16:48;;;;;;;15.07;11.07;;;15.70;88.60;;;;;;4994606;28;20034;-62
2023/09/16 01:19:23;;;;;;;12.80;10.13;;;15.70;88.70;;;;;;4995749;28;20069;-62
2023/09/16 01:21:49;;;;;;;13.45;10.35;;;15.70;88.60;;;;;;4995269;28;20452;-62
2023/09/16 01:24:19;;;;;;;13.35;9.82;;;15.70;88.40;;;;;;4994240;28;20053;-62
2023/09/16 01:26:46;;;;;;;11.85;10.30;;;15.70;88.30;;;;;;4996647;28;20041;-62
2023/09/16 01:29:13;;;;;;;11.38;9.93;;;15.70;88.20;;;;;;4995704;28;20501;-62
2023/09/16 01:31:40;;;;;;;12.75;10.00;;;15.80;88.30;;;;;;4995985;28;20485;-62
2023/09/16 01:34:13;;;;;;;13.93;10.45;;;15.70;88.30;;;;;;4995971;28;20038;-63
2023/09/16 01:36:41;;;;;;;25.27;12.05;;;15.70;88.50;;;;;;4994621;28;20073;-62
2023/09/16 01:39:08;;;;;;;13.98;10.90;;;15.70;88.60;;;;;;4996622;28;20556;-62
2023/09/16 01:41:36;;;;;;;16.42;11.73;;;15.70;88.70;;;;;;4995597;28;20516;-62
2023/09/16 01:44:03;;;;;;;18.27;11.70;;;15.70;88.90;;;;;;4994379;28;20031;-63
2023/09/16 01:46:28;;;;;;;15.23;11.57;;;15.70;89.10;;;;;;4992405;28;20116;-62
2023/09/16 01:48:54;;;;;;;47.95;12.63;;;15.70;89.10;;;;;;4993885;28;20080;-62
2023/09/16 01:51:19;;;;;;;53.40;11.15;;;15.80;89.30;;;;;;4995196;28;20490;-62
2023/09/16 01:53:45;;;;;;;57.70;11.68;;;15.80;89.50;;;;;;4994349;28;20038;-62
2023/09/16 01:56:10;;;;;;;38.55;10.52;;;15.80;89.60;;;;;;4993829;28;20042;-62
2023/09/16 01:58:36;;;;;;;19.15;11.93;;;15.80;89.70;;;;;;4994651;28;20041;-62
2023/09/16 02:01:08;;;;;;;19.55;11.80;;;15.80;89.90;;;;;;4994855;28;20041;-62
2023/09/16 02:03:34;;;;;;;30.35;10.43;;;15.80;90.10;;;;;;4997082;28;20069;-62
2023/09/16 02:05:59;;;;;;;25.55;10.82;;;15.80;90.00;;;;;;4997317;28;20065;-61
2023/09/16 02:08:25;;;;;;;20.23;11.32;;;15.90;90.10;;;;;;4995709;28;20038;-63
2023/09/16 02:10:50;;;;;;;23.55;11.55;;;15.80;90.00;;;;;;4995295;28;20775;-63
2023/09/16 02:13:16;;;;;;;16.20;12.82;;;15.90;90.00;;;;;;4995226;28;20045;-63
2023/09/16 02:15:42;;;;;;;30.42;12.45;;;15.90;90.00;;;;;;4997322;28;20084;-61
2023/09/16 02:18:08;;;;;;;20.92;12.00;;;15.90;89.90;;;;;;4996462;28;20042;-63
2023/09/16 02:20:33;;;;;;;22.25;12.18;;;15.90;89.70;;;;;;4994787;28;20038;-62
2023/09/16 02:23:01;;;;;;;22.92;12.13;;;15.90;89.50;;;;;;4995541;28;20293;-61
2023/09/16 02:25:27;;;;;;;36.50;13.40;;;15.90;89.70;;;;;;4996885;28;20026;-62
2023/09/16 02:27:53;;;;;;;27.02;13.98;;;15.90;89.60;;;;;;4994635;28;20034;-62
2023/09/16 02:30:18;;;;;;;32.47;12.65;;;15.90;89.50;;;;;;4993074;28;20056;-62
2023/09/16 02:32:44;;;;;;;22.13;12.93;;;15.90;89.50;;;;;;4995645;28;20030;-61
2023/09/16 02:35:09;;;;;;;22.02;12.35;;;15.90;89.50;;;;;;4995318;28;20042;-61
2023/09/16 02:37:35;;;;;;;14.65;11.68;;;15.90;89.50;;;;;;4994870;28;20121;-63
2023/09/16 02:40:02;;;;;;;16.38;12.70;;;15.90;89.40;;;;;;4995315;28;20061;-62
2023/09/16 02:42:28;;;;;;;28.80;12.13;;;15.90;89.40;;;;;;4991938;28;20537;-62
2023/09/16 02:44:53;;;;;;;30.83;12.73;;;15.80;89.20;;;;;;4994318;28;20078;-63
2023/09/16 02:47:20;;;;;;;52.00;15.10;;;15.80;89.00;;;;;;4992163;28;20037;-62
2023/09/16 02:49:46;;;;;;;42.72;15.88;;;15.80;89.00;;;;;;4996152;28;20042;-62
2023/09/16 02:52:11;;;;;;;63.42;15.50;;;15.70;89.20;;;;;;4995263;28;20053;-62
2023/09/16 02:54:37;;;;;;;41.47;15.65;;;15.60;90.00;;;;;;4996251;28;20029;-61
2023/09/16 02:57:03;;;;;;;41.88;15.15;;;15.60;89.50;;;;;;4995134;28;20498;-62
2023/09/16 02:59:28;;;;;;;32.45;14.77;;;15.50;89.70;;;;;;4992841;28;20037;-62
2023/09/16 03:01:54;;;;;;;31.92;13.35;;;15.40;90.00;;;;;;4995313;28;20034;-62
2023/09/16 03:04:19;;;;;;;38.40;13.27;;;15.40;90.20;;;;;;4995403;28;20512;-61
2023/09/16 03:06:45;;;;;;;19.20;11.80;;;15.30;90.40;;;;;;4993801;28;20037;-61
2023/09/16 03:09:10;;;;;;;32.75;11.65;;;15.40;90.60;;;;;;4994948;28;20762;-62
2023/09/16 03:11:37;;;;;;;34.47;10.93;;;15.30;90.60;;;;;;4991929;28;20089;-62
2023/09/16 03:14:03;;;;;;;24.35;10.43;;;15.40;90.70;;;;;;4993994;28;20621;-62
2023/09/16 03:16:28;;;;;;;25.17;10.50;;;15.40;90.70;;;;;;4991957;28;20038;-62
2023/09/16 03:18:54;;;;;;;32.47;11.73;;;15.30;91.00;;;;;;4994201;28;20417;-62
2023/09/16 03:21:23;;;;;;;24.17;11.27;;;15.30;90.50;;;;;;4994382;28;20034;-62
2023/09/16 03:23:49;;;;;;;22.45;11.05;;;15.30;90.60;;;;;;4994218;28;20034;-62
2023/09/16 03:26:15;;;;;;;18.88;11.75;;;15.20;90.60;;;;;;4991102;28;20030;-62
2023/09/16 03:28:43;;;;;;;16.48;10.75;;;15.20;90.70;;;;;;4993867;28;20046;-61
2023/09/16 03:31:08;;;;;;;24.30;10.85;;;15.20;90.80;;;;;;4993449;28;20037;-62
2023/09/16 03:33:36;;;;;;;19.75;11.30;;;15.20;90.70;;;;;;4995263;28;20030;-62
2023/09/16 03:36:02;;;;;;;18.00;10.55;;;15.20;90.70;;;;;;4994117;28;20034;-63
2023/09/16 03:38:30;;;;;;;25.85;10.88;;;15.30;90.80;;;;;;4997853;28;20092;-61
2023/09/16 03:40:56;;;;;;;13.57;11.20;;;15.10;90.80;;;;;;4993842;28;20049;-63
2023/09/16 03:43:22;;;;;;;15.73;10.85;;;15.10;90.90;;;;;;4992407;28;20525;-62
2023/09/16 03:45:47;;;;;;;14.73;11.05;;;15.10;91.00;;;;;;4992106;28;20289;-62
2023/09/16 03:48:13;;;;;;;20.17;11.32;;;15.20;91.20;;;;;;4994056;28;20037;-61
2023/09/16 03:50:38;;;;;;;14.38;10.88;;;15.20;91.20;;;;;;4993578;28;20217;-62
2023/09/16 03:53:04;;;;;;;19.23;10.68;;;15.20;91.60;;;;;;4993961;28;20052;-62
2023/09/16 03:55:30;;;;;;;15.80;10.57;;;15.30;91.20;;;;;;4993971;28;20038;-62
2023/09/16 03:57:56;;;;;;;18.60;11.65;;;15.40;91.20;;;;;;4993497;28;20068;-62
2023/09/16 04:00:21;;;;;;;15.13;11.15;;;15.40;91.10;;;;;;4993112;28;20038;-62
2023/09/16 04:02:47;;;;;;;18.90;11.45;;;15.40;91.00;;;;;;4993328;28;20072;-61
2023/09/16 04:05:13;;;;;;;20.92;11.77;;;15.50;91.00;;;;;;4994666;28;20053;-62
2023/09/16 04:07:39;;;;;;;16.27;10.85;;;15.60;91.00;;;;;;4994912;28;20038;-61
2023/09/16 04:10:06;;;;;;;17.63;11.95;;;15.60;91.00;;;;;;4995094;28;20587;-61
2023/09/16 04:12:32;;;;;;;17.75;12.07;;;15.60;90.90;;;;;;4994007;28;20128;-62
2023/09/16 04:14:58;;;;;;;15.23;10.90;;;15.70;90.90;;;;;;4998688;28;20500;-62
2023/09/16 04:17:23;;;;;;;19.35;11.43;;;15.70;90.90;;;;;;4997973;28;20038;-61
2023/09/16 04:19:49;;;;;;;17.73;11.95;;;15.70;90.90;;;;;;4999200;28;20113;-62
2023/09/16 04:22:15;;;;;;;19.17;11.40;;;15.70;90.80;;;;;;4997552;28;20030;-62
2023/09/16 04:24:40;;;;;;;20.35;13.00;;;15.80;90.80;;;;;;4995598;28;20038;-63
2023/09/16 04:27:06;;;;;;;20.40;12.95;;;15.80;90.80;;;;;;4996478;28;20397;-62
2023/09/16 04:29:31;;;;;;;17.73;11.77;;;15.80;90.80;;;;;;4997729;28;20045;-62
2023/09/16 04:31:57;;;;;;;18.52;13.35;;;15.90;90.70;;;;;;4996766;28;20382;-62
2023/09/16 04:34:22;;;;;;;17.83;12.63;;;15.80;90.70;;;;;;4996476;28;20042;-61
2023/09/16 04:36:48;;;;;;;15.00;11.70;;;15.90;90.70;;;;;;4999145;28;20048;-61
2023/09/16 04:39:16;;;;;;;16.35;10.55;;;15.90;90.60;;;;;;4997157;28;20129;-62
2023/09/16 04:41:42;;;;;;;16.30;10.85;;;15.90;90.60;;;;;;4995072;28;20097;-62
2023/09/16 04:44:10;;;;;;;13.85;10.13;;;15.90;90.50;;;;;;5009674;28;20502;-62
2023/09/16 04:46:36;;;;;;;14.27;10.65;;;15.90;90.40;;;;;;4998848;28;20061;-63
2023/09/16 04:49:02;;;;;;;16.08;11.00;;;15.80;90.50;;;;;;4997574;28;20494;-62
2023/09/16 04:51:27;;;;;;;19.00;11.18;;;15.80;90.50;;;;;;4996259;28;20043;-62
2023/09/16 04:53:55;;;;;;;16.77;11.75;;;15.80;90.60;;;;;;4995921;28;20453;-61
2023/09/16 04:56:20;;;;;;;16.15;11.38;;;15.80;90.60;;;;;;4996861;28;20034;-62
2023/09/16 04:58:49;;;;;;;17.33;12.43;;;15.70;90.60;;;;;;4997473;28;20506;-62
2023/09/16 05:01:14;;;;;;;17.27;12.07;;;15.70;90.70;;;;;;4996140;28;20046;-63
2023/09/16 05:03:40;;;;;;;17.58;11.95;;;15.70;90.80;;;;;;4996738;28;20452;-63
2023/09/16 05:06:06;;;;;;;18.58;12.55;;;15.80;90.90;;;;;;4995592;28;20047;-63
2023/09/16 05:08:31;;;;;;;24.20;13.82;;;15.80;91.00;;;;;;4997413;28;20038;-61
2023/09/16 05:10:57;;;;;;;27.27;13.35;;;15.80;91.00;;;;;;4992680;28;20042;-62
2023/09/16 05:13:23;;;;;;;34.03;13.73;;;15.80;91.10;;;;;;4993819;28;20760;-62
2023/09/16 05:15:52;;;;;;;33.58;14.15;;;15.90;91.20;;;;;;4996534;28;20046;-62
2023/09/16 05:18:18;;;;;;;31.08;14.63;;;15.90;91.20;;;;;;4994630;28;20417;-63
2023/09/16 05:20:44;;;;;;;24.23;14.05;;;15.90;91.20;;;;;;4996057;28;20038;-62
2023/09/16 05:23:12;;;;;;;36.20;13.15;;;15.90;91.30;;;;;;4996621;28;20489;-63
2023/09/16 05:25:45;;;;;;;31.52;12.98;;;16.00;91.40;;;;;;4998410;28;20607;-62
2023/09/16 05:28:11;;;;;;;23.05;12.63;;;16.00;91.50;;;;;;4995943;28;20034;-61
2023/09/16 05:30:36;;;;;;;18.58;12.98;;;16.00;91.40;;;;;;4996344;28;20029;-62
2023/09/16 05:33:02;;;;;;;27.10;13.05;;;16.00;91.40;;;;;;4996029;28;20556;-63
2023/09/16 05:35:28;;;;;;;54.67;13.02;;;16.10;91.40;;;;;;4993433;28;20042;-62
2023/09/16 05:37:53;;;;;;;15.18;12.57;;;16.10;91.50;;;;;;4997425;28;20041;-61
2023/09/16 05:40:19;;;;;;;50.75;13.13;;;16.20;91.50;;;;;;4994857;28;20042;-62
2023/09/16 05:42:45;;;;;;;20.38;13.43;;;16.20;91.40;;;;;;4994759;28;20043;-62
2023/09/16 05:45:11;;;;;;;31.27;12.85;;;16.20;91.30;;;;;;4994736;28;20045;-63
2023/09/16 05:47:37;;;;;;;28.33;13.02;;;16.30;91.40;;;;;;4994911;28;20042;-63
2023/09/16 05:50:03;;;;;;;24.42;12.55;;;16.30;91.50;;;;;;4994036;28;20046;-62
2023/09/16 05:52:28;;;;;;;49.03;11.48;;;16.30;91.50;;;;;;4994015;28;20139;-62
2023/09/16 05:54:54;;;;;;;28.33;12.00;;;16.40;91.40;;;;;;4993795;28;20504;-62
2023/09/16 05:57:19;;;;;;;47.85;11.98;;;16.40;91.40;;;;;;4987844;28;20856;-63
2023/09/16 05:59:45;;;;;;;48.03;11.85;;;16.40;91.40;;;;;;4977678;28;20048;-63
2023/09/16 06:02:11;;;;;;;29.02;11.80;;;16.40;91.30;;;;;;4980488;28;20038;-63
2023/09/16 06:04:36;;;;;;;25.08;11.15;;;16.50;91.40;;;;;;4982583;28;20053;-63
2023/09/16 06:07:02;;;;;;;34.33;11.82;;;16.50;91.30;;;;;;4980762;28;20492;-63
2023/09/16 06:09:28;;;;;;;31.00;10.65;;;16.50;91.30;;;;;;4975771;28;20124;-63
2023/09/16 06:11:53;;;;;;;37.05;11.88;;;16.60;91.40;;;;;;4975984;28;20391;-63
2023/09/16 06:14:19;;;;;;;20.67;11.77;;;16.60;91.40;;;;;;4977066;28;22199;-62
2023/09/16 06:16:44;;;;;;;13.68;11.63;;;16.60;91.40;;;;;;4976879;28;20073;-62
2023/09/16 06:19:10;;;;;;;14.07;10.30;;;16.60;91.40;;;;;;4981599;28;20352;-63
2023/09/16 06:21:36;;;;;;;34.08;10.20;;;16.60;91.30;;;;;;4986065;28;20033;-63
2023/09/16 06:24:01;;;;;;;26.05;9.95;;;16.70;91.30;;;;;;4982113;28;20048;-63
2023/09/16 06:26:27;;;;;;;12.15;9.75;;;16.70;91.40;;;;;;4981670;28;20069;-63
2023/09/16 06:28:53;;;;;;;28.67;9.98;;;16.70;91.40;;;;;;4984776;28;20077;-63
2023/09/16 06:31:19;;;;;;;14.73;10.52;;;16.70;91.30;;;;;;4981479;28;20039;-63
2023/09/16 06:33:44;;;;;;;19.40;10.98;;;16.80;91.30;;;;;;4981870;28;20557;-63
2023/09/16 06:36:10;;;;;;;19.80;10.18;;;16.80;91.70;;;;;;4980635;28;20034;-63
2023/09/16 06:38:35;;;;;;;14.80;10.27;;;16.80;91.30;;;;;;4980263;28;20134;-63
2023/09/16 06:41:01;;;;;;;27.85;11.00;;;16.80;91.30;;;;;;4981849;28;20042;-62
2023/09/16 06:43:26;;;;;;;36.28;10.50;;;16.80;91.30;;;;;;4984633;28;20041;-63
2023/09/16 06:45:52;;;;;;;38.42;10.73;;;16.90;91.40;;;;;;4982267;28;20046;-63
2023/09/16 06:48:17;;;;;;;24.58;9.90;;;16.90;91.30;;;;;;4979059;28;20520;-62
2023/09/16 06:50:43;;;;;;;31.75;10.27;;;16.90;91.20;;;;;;4982438;28;20084;-63
2023/09/16 06:53:15;;;;;;;36.00;10.98;;;17.00;91.20;;;;;;5022026;28;20414;-63
2023/09/16 06:55:41;;;;;;;49.75;10.45;;;17.00;91.20;;;;;;4986559;28;20093;-63
2023/09/16 06:58:07;;;;;;;30.83;10.05;;;16.90;91.10;;;;;;4984302;28;20490;-63
2023/09/16 07:00:34;;;;;;;17.65;9.95;;;17.00;91.10;;;;;;4972352;28;20105;-62
2023/09/16 07:03:02;;;;;;;33.42;10.88;;;16.90;91.20;;;;;;4976665;28;20030;-63
2023/09/16 07:05:29;;;;;;;22.33;10.85;;;16.90;91.20;;;;;;4977331;28;20568;-61
2023/09/16 07:07:55;;;;;;;24.10;11.65;;;17.00;91.30;;;;;;4986671;28;20057;-62
2023/09/16 07:10:21;;;;;;;30.02;11.82;;;17.00;91.40;;;;;;4984295;28;20562;-62
2023/09/16 07:12:46;;;;;;;22.17;11.20;;;17.00;91.40;;;;;;4985329;28;20438;-62
2023/09/16 07:15:12;;;;;;;42.97;11.45;;;17.10;91.60;;;;;;4980909;28;20053;-62
2023/09/16 07:17:38;;;;;;;36.88;11.35;;;17.10;91.40;;;;;;4983109;28;20035;-62
2023/09/16 07:20:04;;;;;;;41.63;11.65;;;17.10;91.20;;;;;;4986663;28;20542;-62
2023/09/16 07:22:30;;;;;;;27.27;11.88;;;17.10;91.20;;;;;;4986095;28;20465;-62
2023/09/16 07:24:56;;;;;;;13.32;11.75;;;17.10;91.30;;;;;;4983584;28;20113;-61
2023/09/16 07:27:22;;;;;;;30.63;13.18;;;17.10;91.60;;;;;;4982106;28;20110;-62
2023/09/16 07:29:47;;;;;;;31.05;12.60;;;17.10;91.40;;;;;;4984142;28;20030;-62
2023/09/16 07:32:13;;;;;;;23.10;11.98;;;17.10;91.40;;;;;;4988261;28;20599;-62
2023/09/16 07:34:38;;;;;;;29.33;12.07;;;17.10;91.30;;;;;;4989040;28;20034;-62
2023/09/16 07:37:04;;;;;;;20.75;12.02;;;17.10;91.30;;;;;;4982643;28;20126;-62
2023/09/16 07:39:30;;;;;;;50.13;12.45;;;17.10;91.40;;;;;;4984569;28;20069;-62
2023/09/16 07:41:56;;;;;;;38.28;11.02;;;17.10;91.40;;;;;;4985280;28;20380;-62
2023/09/16 07:44:21;;;;;;;19.33;11.90;;;17.20;91.40;;;;;;4984376;28;20092;-62
2023/09/16 07:46:48;;;;;;;19.30;12.15;;;17.20;91.40;;;;;;4970712;28;20047;-61
2023/09/16 07:49:14;;;;;;;38.03;12.52;;;17.20;91.40;;;;;;4972760;28;20043;-62
2023/09/16 07:51:40;;;;;;;38.58;12.23;;;17.20;91.50;;;;;;4966077;28;20133;-62
2023/09/16 07:54:09;;;;;;;14.13;11.77;;;17.30;91.50;;;;;;4965136;28;20038;-61
2023/09/16 07:56:34;;;;;;;14.50;11.98;;;17.30;91.70;;;;;;4968966;28;20152;-62
2023/09/16 07:59:00;;;;;;;19.73;12.48;;;17.30;91.70;;;;;;4978011;28;20035;-62
2023/09/16 08:01:25;;;;;;;16.48;12.10;;;17.30;91.80;;;;;;4974047;28;20485;-62
2023/09/16 08:03:51;;;;;;;30.45;11.57;;;17.40;91.80;;;;;;4978164;28;20494;-61
2023/09/16 08:06:17;;;;;;;18.55;11.43;;;17.50;91.80;;;;;;4972904;28;20069;-60
2023/09/16 08:08:42;;;;;;;12.55;11.30;;;17.50;91.70;;;;;;4969345;28;20039;-60
2023/09/16 08:11:08;;;;;;;13.00;11.65;;;17.60;91.70;;;;;;4970256;28;20565;-62
2023/09/16 08:13:33;;;;;;;12.77;10.82;;;17.60;91.70;;;;;;4963444;28;20038;-62
2023/09/16 08:15:59;;;;;;;14.32;11.57;;;17.70;91.60;;;;;;4974457;28;20026;-62
2023/09/16 08:18:24;;;;;;;16.08;11.60;;;17.70;91.60;;;;;;4971317;28;20030;-62
2023/09/16 08:20:50;;;;;;;12.65;11.35;;;17.80;91.60;;;;;;4972077;28;20483;-62
2023/09/16 08:23:16;;;;;;;17.02;11.68;;;17.80;91.60;;;;;;4973423;28;20042;-62
2023/09/16 08:25:42;;;;;;;12.73;11.45;;;17.90;92.00;;;;;;4967508;28;20432;-62
2023/09/16 08:28:08;;;;;;;15.60;10.65;;;18.00;92.00;;;;;;4971358;28;20113;-62
2023/09/16 08:30:33;;;;;;;11.93;10.68;;;18.00;91.50;;;;;;4971251;28;20061;-62
2023/09/16 08:32:59;;;;;;;13.40;11.30;;;18.00;91.40;;;;;;4971913;28;20061;-62
2023/09/16 08:35:26;;;;;;;13.40;10.77;;;18.00;91.30;;;;;;4975291;28;20038;-62
2023/09/16 08:37:54;;;;;;;12.98;10.50;;;18.10;91.30;;;;;;4971311;28;20046;-62
2023/09/16 08:40:21;;;;;;;12.20;11.00;;;18.10;91.20;;;;;;4971422;28;20516;-62
2023/09/16 08:42:59;;;;;;;12.93;11.63;;;18.10;91.30;;;;;;4963613;28;20631;-61
2023/09/16 08:45:26;;;;;;;54.58;12.15;;;18.20;91.40;;;;;;4971252;28;20153;-62
2023/09/16 08:47:56;;;;;;;14.10;11.07;;;18.20;91.20;;;;;;4963095;28;20042;-62
2023/09/16 08:50:24;;;;;;;12.48;11.20;;;18.30;91.20;;;;;;4971869;28;20071;-62
2023/09/16 08:52:53;;;;;;;16.63;12.50;;;18.30;91.40;;;;;;4950073;28;20046;-62
2023/09/16 08:55:19;;;;;;;12.85;11.52;;;18.30;91.40;;;;;;4954528;28;20058;-62
2023/09/16 08:57:50;;;;;;;12.15;10.95;;;18.40;91.40;;;;;;4952406;28;20640;-63
2023/09/16 09:00:16;;;;;;;12.90;11.60;;;18.40;91.30;;;;;;4951486;28;20054;-62
2023/09/16 09:02:43;;;;;;;12.52;11.23;;;18.50;91.20;;;;;;4970879;28;20130;-62
2023/09/16 09:05:10;;;;;;;12.55;11.27;;;18.50;91.20;;;;;;4971952;28;20047;-62
2023/09/16 09:07:39;;;;;;;12.70;11.40;;;18.60;91.20;;;;;;4972479;28;20454;-62
2023/09/16 09:10:06;;;;;;;13.50;12.13;;;18.70;91.20;;;;;;4970946;28;20802;-61
2023/09/16 09:12:35;;;;;;;14.13;12.63;;;18.70;91.20;;;;;;4966579;28;20039;-62
2023/09/16 09:15:07;;;;;;;15.85;13.32;;;18.80;91.10;;;;;;4968449;28;20115;-62
2023/09/16 09:17:46;;;;;;;15.80;13.70;;;18.90;91.10;;;;;;4969154;28;20113;-61
2023/09/16 09:20:17;;;;;;;14.00;12.60;;;18.90;91.10;;;;;;4972567;28;20061;-62
2023/09/16 09:22:43;;;;;;;14.32;12.85;;;19.00;91.00;;;;;;4970477;28;20043;-62
2023/09/16 09:25:10;;;;;;;13.88;12.48;;;19.10;91.00;;;;;;4969364;28;20038;-62
2023/09/16 09:27:35;;;;;;;15.05;13.05;;;19.10;91.00;;;;;;4966193;28;20038;-62
2023/09/16 09:30:01;;;;;;;14.07;12.68;;;19.20;90.90;;;;;;4951033;28;20046;-62
2023/09/16 09:32:31;;;;;;;13.23;11.93;;;19.20;90.90;;;;;;4963887;28;20601;-62
2023/09/16 09:34:57;;;;;;;14.32;12.40;;;19.30;90.90;;;;;;4950551;28;20570;-61
2023/09/16 09:37:24;;;;;;;14.07;12.57;;;19.40;90.90;;;;;;4958856;28;20376;-62
2023/09/16 09:40:22;;;;;;;17.45;12.55;;;19.50;90.80;;;;;;4965353;28;20062;-62
2023/09/16 09:42:50;;;;;;;14.98;13.38;;;19.60;90.60;;;;;;4970534;28;20031;-62
2023/09/16 09:45:21;;;;;;;14.85;13.25;;;19.60;90.60;;;;;;4973347;28;20035;-62
2023/09/16 09:47:49;;;;;;;15.02;13.50;;;19.70;90.40;;;;;;4968431;28;20567;-62
2023/09/16 09:50:16;;;;;;;15.95;14.25;;;19.70;90.30;;;;;;4973197;28;20121;-61
2023/09/16 09:52:55;;;;;;;16.40;14.65;;;19.80;90.30;;;;;;4965840;28;20038;-62
2023/09/16 09:55:28;;;;;;;15.63;14.00;;;19.80;90.10;;;;;;4970898;28;20078;-62
2023/09/16 09:57:54;;;;;;;17.95;15.60;;;19.80;90.20;;;;;;4971514;28;20122;-63
2023/09/16 10:00:22;;;;;;;17.15;15.13;;;19.80;90.20;;;;;;4970934;28;20263;-62
2023/09/16 10:02:49;;;;;;;19.92;15.50;;;19.80;90.10;;;;;;4970591;28;20066;-62
2023/09/16 10:05:16;;;;;;;17.25;14.27;;;19.80;90.20;;;;;;4974181;28;20038;-62
2023/09/16 10:07:43;;;;;;;16.42;14.65;;;19.90;90.40;;;;;;4974859;28;20121;-63
2023/09/16 10:10:12;;;;;;;16.95;15.15;;;19.90;90.50;;;;;;4976204;28;20093;-63
2023/09/16 10:12:39;;;;;;;17.63;15.77;;;20.00;90.30;;;;;;4973744;28;20429;-62
2023/09/16 10:15:07;;;;;;;18.02;15.98;;;20.00;90.20;;;;;;4976385;28;20038;-63
2023/09/16 10:17:32;;;;;;;16.85;15.05;;;20.00;90.10;;;;;;4975559;28;20038;-62
2023/09/16 10:19:59;;;;;;;18.70;15.70;;;20.10;90.10;;;;;;4973740;28;20042;-62
2023/09/16 10:22:25;;;;;;;18.00;15.95;;;20.10;90.10;;;;;;4976255;28;20042;-63
2023/09/16 10:24:52;;;;;;;17.80;15.68;;;20.10;90.10;;;;;;4942737;28;20038;-62
2023/09/16 10:27:24;;;;;;;18.25;16.35;;;20.10;90.00;;;;;;4957162;28;20043;-62
2023/09/16 10:29:49;;;;;;;18.98;16.67;;;20.10;90.20;;;;;;4968921;28;20043;-62
2023/09/16 10:32:16;;;;;;;18.20;16.25;;;20.10;90.10;;;;;;4976673;28;20053;-62
2023/09/16 10:34:46;;;;;;;16.95;14.90;;;20.10;90.20;;;;;;4973763;28;20182;-62
2023/09/16 10:37:15;;;;;;;19.35;16.70;;;20.10;90.30;;;;;;4976316;28;20035;-63
2023/09/16 10:39:43;;;;;;;17.75;15.88;;;20.20;90.30;;;;;;4974793;28;20140;-62
2023/09/16 10:42:10;;;;;;;18.40;15.88;;;20.20;90.20;;;;;;4976976;28;20046;-63
2023/09/16 10:44:37;;;;;;;18.23;16.27;;;20.30;90.40;;;;;;4976135;28;20478;-62
2023/09/16 10:47:04;;;;;;;21.48;18.45;;;20.30;90.20;;;;;;4975138;28;20150;-63
2023/09/16 10:49:30;;;;;;;19.15;17.00;;;20.40;90.20;;;;;;4971884;28;20031;-62
2023/09/16 10:52:05;;;;;;;17.25;15.45;;;20.50;90.10;;;;;;4974491;28;20035;-62
2023/09/16 10:54:37;;;;;;;;;;;20.50;90.00;;;;;;4974027;28;20122;-63
2023/09/16 10:57:15;;;;;;;17.88;15.98;;;20.60;90.00;;;;;;4972884;28;19914;-63
2023/09/16 10:59:41;;;;;;;18.77;16.33;;;20.70;90.30;;;;;;4974202;28;20038;-62
2023/09/16 11:02:44;;;;;;;19.52;17.05;;;20.70;90.10;;;;;;4975359;28;20035;-62
2023/09/16 11:05:10;;;;;;;18.52;16.30;;;20.80;89.80;;;;;;4975862;28;20541;-61
2023/09/16 11:07:36;;;;;;;20.13;17.35;;;20.80;90.00;;;;;;4975738;28;20039;-63
2023/09/16 11:10:03;;;;;;;19.42;17.33;;;20.90;89.90;;;;;;4962339;28;20055;-62
2023/09/16 11:12:31;;;;;;;21.55;18.65;;;20.90;89.40;;;;;;4949597;28;20035;-62
2023/09/16 11:14:57;;;;;;;20.15;17.25;;;21.00;89.20;;;;;;4973610;28;20110;-63
2023/09/16 11:17:23;;;;;;;19.23;16.50;;;21.10;89.00;;;;;;4975404;28;20165;-62
2023/09/16 11:19:49;;;;;;;20.73;17.90;;;21.10;89.20;;;;;;4976489;28;20084;-62
2023/09/16 11:22:14;;;;;;;24.55;17.25;;;21.20;89.40;;;;;;4976522;28;20050;-62
2023/09/16 11:24:41;;;;;;;20.23;17.13;;;21.20;89.20;;;;;;4972981;28;20065;-63
2023/09/16 11:27:07;;;;;;;18.85;16.27;;;21.30;88.60;;;;;;4974727;28;20070;-63
2023/09/16 11:29:32;;;;;;;18.40;15.75;;;21.40;88.30;;;;;;4975429;28;20113;-63
2023/09/16 11:32:02;;;;;;;17.20;15.38;;;21.50;88.50;;;;;;4976496;28;20155;-63
2023/09/16 11:34:29;;;;;;;17.95;16.08;;;21.60;88.50;;;;;;4974408;28;20038;-63
2023/09/16 11:36:55;;;;;;;16.80;14.73;;;21.70;88.30;;;;;;4976768;28;20041;-63
2023/09/16 11:39:24;;;;;;;16.17;13.70;;;21.80;87.50;;;;;;4977165;28;20037;-63
2023/09/16 11:41:50;;;;;;;13.57;11.73;;;21.90;86.90;;;;;;4978697;28;20121;-63
2023/09/16 11:44:16;;;;;;;15.20;13.35;;;22.00;86.60;;;;;;4976255;28;20137;-63
2023/09/16 11:46:45;;;;;;;13.52;12.15;;;22.10;86.40;;;;;;4978895;28;20042;-63
2023/09/16 11:49:13;;;;;;;12.40;11.00;;;22.20;86.40;;;;;;4978727;28;20039;-63
2023/09/16 11:51:38;;;;;;;13.70;12.13;;;22.30;86.40;;;;;;4977088;28;20413;-61
2023/09/16 11:54:04;;;;;;;14.95;13.35;;;22.40;85.90;;;;;;4975324;28;20026;-62
2023/09/16 11:56:34;;;;;;;12.98;11.63;;;22.50;85.90;;;;;;4980229;28;20144;-59
2023/09/16 11:59:00;;;;;;;13.15;11.68;;;22.60;85.70;;;;;;4979689;28;20039;-63
2023/09/16 12:01:34;;;;;;;12.48;11.20;;;22.70;85.30;;;;;;4975839;28;20122;-62
2023/09/16 12:04:01;;;;;;;12.43;11.23;;;22.80;85.00;;;;;;4976804;28;20406;-63
2023/09/16 12:06:27;;;;;;;14.25;12.75;;;22.80;83.80;;;;;;4977091;28;20443;-62
2023/09/16 12:08:56;;;;;;;12.52;10.98;;;23.00;83.90;;;;;;4977009;28;20035;-62
2023/09/16 12:11:22;;;;;;;10.15;9.15;;;23.00;83.40;;;;;;4973085;28;20034;-63
2023/09/16 12:13:48;;;;;;;10.27;9.25;;;23.10;83.40;;;;;;4978636;28;20030;-63
2023/09/16 12:16:15;;;;;;;6.95;6.25;;;23.20;82.80;;;;;;4977310;28;20042;-63
2023/09/16 12:18:42;;;;;;;6.75;6.15;;;23.30;81.90;;;;;;4979374;28;20034;-63
2023/09/16 12:21:08;;;;;;;7.82;7.03;;;23.40;80.60;;;;;;4978267;28;20035;-63
2023/09/16 12:23:34;;;;;;;5.78;5.25;;;23.40;80.60;;;;;;4978532;28;20577;-62
2023/09/16 12:26:00;;;;;;;6.65;6.03;;;23.50;80.00;;;;;;4978226;28;20034;-63